Chipman Lake, Vermont
Current Conditions -  °F | °C
As of 11:15 PM on Wednesday 22 Oct 2014 (Local Time) from KRUT Reporting Station
Overcast Overcast  
Wind Chill: 50°   Ceiling: 2500
Heat Index: 50°   Visibility: 10mi
Dew Point: 43°   Wind: 17mph
Humidity: 76%   Direction: 360°N
Pressure: 29.96"   Gusts: 21mph
Location:  43.3492°N, 72.9643°W
Report Text: KRUT 230315Z 36015G18KT 10SM OVC025 10/06 A2996 RMK AO1
Loading
Personal Weather Stations






























Interactive Weather Map
Tropical Storm Tracking
New forecast layout! Learn more

10-Day Weather Forecast

Advertisements
Track Severe Weather on mobile